Startpagina
METAR-TAF:

METAR-TAF

Vliegvelden :

Pontoise, Frankrijk

Aérodrome de Pontoise-Cormeilles-en-Vexin

breedte: 49-05-48N, lengte: 002-02-27E, hoogte: 99 m

Actueel weer

Dit bericht is 10 minuten geleden gemaakt, om 03:00 UTC
Weinig wind
Temperatuur 12°C
Vochtigheid 94%
Druk 1018 hPa
Zicht 10 km of meer
geen wolken onder 1500 m en geen cumulonimbus

METAR: LFPT 240300Z AUTO 00000KT CAVOK 12/11 Q1018

Tijdstip: 05:10 (03:10 UTC)


TAF: ontbreekt

Waarnemingen en weersverwachtingen van meer dan 4000 vliegvelden (METAR en TAF).

De beschikbare stations zijn de gele en rode punten op de kaart.

Ga met uw muis naar het station om de naam te zien.

Klik dan om waarnemingen en weersverwachtingen te zien.

kaart wijzigen: klik op de groene knoppen met een zwart kruis om in te zoomen, op de groene knop met een streepje om uit te zoomen of op de groene pijlen voor aangrenzende kaarten.


METAR-TAF: